createdAt,value
2018-12-10T00:01:19.260Z,5.90
2018-12-10T00:03:51.059Z,6.00
2018-12-10T00:06:23.025Z,5.90
2018-12-10T00:08:53.144Z,5.90
2018-12-10T00:11:23.164Z,6.00
2018-12-10T00:13:53.130Z,6.00
2018-12-10T00:16:24.213Z,6.00
2018-12-10T00:18:54.121Z,6.00
2018-12-10T00:21:24.094Z,5.90
2018-12-10T00:23:54.049Z,5.90
2018-12-10T00:26:24.185Z,5.80
2018-12-10T00:28:54.086Z,5.80
2018-12-10T00:31:24.106Z,5.80
2018-12-10T00:33:54.013Z,5.90
2018-12-10T00:36:24.030Z,5.90
2018-12-10T00:38:53.945Z,5.90
2018-12-10T00:41:23.878Z,5.90
2018-12-10T00:43:53.994Z,5.90
2018-12-10T00:46:24.005Z,5.90
2018-12-10T00:48:53.947Z,5.90
2018-12-10T00:51:23.921Z,5.90
2018-12-10T00:53:53.951Z,5.90
2018-12-10T00:56:23.971Z,5.90
2018-12-10T00:58:53.978Z,5.90
2018-12-10T01:01:24.003Z,5.90
2018-12-10T01:03:53.919Z,5.90
2018-12-10T01:06:23.914Z,5.80
2018-12-10T01:08:53.914Z,5.80
2018-12-10T01:11:23.966Z,5.70
2018-12-10T01:13:53.870Z,5.70
2018-12-10T01:16:23.900Z,5.80
2018-12-10T01:18:53.803Z,5.80
2018-12-10T01:21:23.783Z,5.80
2018-12-10T01:23:53.707Z,5.80
2018-12-10T01:26:23.680Z,5.90
2018-12-10T01:28:53.581Z,5.90
2018-12-10T01:31:23.485Z,5.90
2018-12-10T01:33:53.343Z,5.90
2018-12-10T01:36:23.348Z,5.90
2018-12-10T01:38:53.415Z,5.90
2018-12-10T01:41:23.657Z,5.90
2018-12-10T01:43:53.482Z,5.90
2018-12-10T01:46:23.480Z,5.90
2018-12-10T01:48:53.573Z,5.90
2018-12-10T01:51:23.511Z,5.90
2018-12-10T01:53:53.497Z,5.90
2018-12-10T01:56:23.476Z,5.90
2018-12-10T01:58:53.391Z,5.90
2018-12-10T02:01:23.336Z,5.90
2018-12-10T02:03:53.275Z,5.90
2018-12-10T02:06:23.604Z,5.90
2018-12-10T02:08:53.565Z,5.90
2018-12-10T02:11:38.075Z,6.00
2018-12-10T02:14:08.292Z,5.90
2018-12-10T02:16:38.320Z,5.90
2018-12-10T02:19:08.334Z,5.90
2018-12-10T02:21:38.358Z,5.90
2018-12-10T02:24:08.355Z,5.90
2018-12-10T02:26:38.382Z,5.80
2018-12-10T02:29:14.309Z,5.80
2018-12-10T02:31:44.864Z,5.80
2018-12-10T02:34:14.792Z,5.80
2018-12-10T02:36:45.819Z,5.80
2018-12-10T02:39:15.840Z,5.80
2018-12-10T02:41:45.707Z,5.80
2018-12-10T02:44:15.759Z,5.80
2018-12-10T02:46:52.648Z,5.80
2018-12-10T02:49:22.468Z,5.70
2018-12-10T02:51:52.409Z,5.70
2018-12-10T02:54:22.379Z,5.60
2018-12-10T02:56:52.203Z,5.60
2018-12-10T02:59:22.150Z,5.50
2018-12-10T03:01:52.133Z,5.50
2018-12-10T03:04:22.130Z,5.50
2018-12-10T03:06:52.379Z,5.40
2018-12-10T03:09:22.296Z,5.40
2018-12-10T03:11:52.233Z,5.40
2018-12-10T03:14:22.304Z,5.40
2018-12-10T03:16:52.113Z,5.40
2018-12-10T03:19:22.134Z,5.30
2018-12-10T03:21:52.157Z,5.30
2018-12-10T03:24:22.059Z,5.30
2018-12-10T03:26:52.044Z,5.20
2018-12-10T03:29:22.035Z,5.20
2018-12-10T03:31:52.037Z,5.20
2018-12-10T03:34:22.029Z,5.20
2018-12-10T03:36:52.048Z,5.20
2018-12-10T03:39:22.167Z,5.20
2018-12-10T03:41:52.180Z,5.20
2018-12-10T03:44:22.081Z,5.20
2018-12-10T03:46:52.015Z,5.20
2018-12-10T03:49:22.106Z,5.20
2018-12-10T03:51:52.101Z,5.20
2018-12-10T03:54:22.054Z,5.20
2018-12-10T03:56:51.929Z,5.20
2018-12-10T03:59:22.083Z,5.20
2018-12-10T04:01:52.089Z,5.20
2018-12-10T04:04:22.219Z,5.30
2018-12-10T04:06:52.151Z,5.30
2018-12-10T04:09:22.261Z,5.40
2018-12-10T04:11:52.252Z,5.40
2018-12-10T04:14:22.183Z,5.40
2018-12-10T04:16:52.458Z,5.40
2018-12-10T04:19:22.355Z,5.40
2018-12-10T04:21:52.350Z,5.40
2018-12-10T04:24:22.454Z,5.40
2018-12-10T04:26:52.805Z,5.40
2018-12-10T04:29:22.960Z,5.40
2018-12-10T04:31:52.927Z,5.30
2018-12-10T04:34:23.026Z,5.30
2018-12-10T04:36:52.898Z,5.20
2018-12-10T04:39:22.875Z,5.20
2018-12-10T04:41:52.688Z,5.10
2018-12-10T04:44:22.633Z,5.10
2018-12-10T04:46:52.985Z,5.10
2018-12-10T04:49:22.849Z,5.10
2018-12-10T04:51:52.739Z,5.10
2018-12-10T04:54:22.755Z,5.20
2018-12-10T04:56:52.776Z,5.20
2018-12-10T04:59:22.887Z,5.20
2018-12-10T05:01:52.827Z,5.10
2018-12-10T05:04:22.756Z,5.10
2018-12-10T05:06:52.967Z,5.00
2018-12-10T05:09:22.835Z,5.00
2018-12-10T05:11:52.796Z,5.00
2018-12-10T05:14:22.891Z,5.00
2018-12-10T05:16:52.909Z,5.00
2018-12-10T05:19:22.907Z,5.00
2018-12-10T05:21:52.827Z,5.00
2018-12-10T05:24:22.856Z,5.00
2018-12-10T05:26:52.863Z,5.00
2018-12-10T05:29:22.793Z,4.90
2018-12-10T05:31:52.782Z,4.90
2018-12-10T05:34:22.779Z,5.00
2018-12-10T05:36:53.740Z,5.00
2018-12-10T05:39:23.766Z,5.00
2018-12-10T05:41:53.660Z,5.00
2018-12-10T05:44:23.591Z,5.00
2018-12-10T05:46:53.617Z,5.00
2018-12-10T05:49:23.747Z,5.00
2018-12-10T05:51:53.736Z,5.00
2018-12-10T05:54:23.764Z,4.90
2018-12-10T05:56:53.680Z,4.90
2018-12-10T05:59:23.572Z,4.80
2018-12-10T06:01:53.616Z,4.80
2018-12-10T06:04:23.570Z,4.80
2018-12-10T06:06:53.537Z,4.80
2018-12-10T06:09:23.449Z,4.80
2018-12-10T06:11:53.371Z,4.80
2018-12-10T06:14:23.308Z,4.80
2018-12-10T06:16:53.402Z,4.90
2018-12-10T06:19:23.412Z,5.00
2018-12-10T06:21:53.423Z,5.00
2018-12-10T06:24:23.330Z,5.10
2018-12-10T06:26:53.342Z,5.10
2018-12-10T06:29:23.392Z,5.10
2018-12-10T06:31:53.385Z,5.10
2018-12-10T06:34:23.407Z,5.20
2018-12-10T06:36:53.415Z,5.20
2018-12-10T06:39:23.448Z,5.10
2018-12-10T06:41:53.560Z,5.10
2018-12-10T06:44:23.679Z,5.10
2018-12-10T06:46:54.096Z,5.00
2018-12-10T06:49:23.929Z,5.00
2018-12-10T06:51:53.852Z,5.00
2018-12-10T06:54:23.855Z,4.90
2018-12-10T06:56:53.851Z,4.90
2018-12-10T06:59:23.799Z,4.90
2018-12-10T07:01:53.997Z,4.80
2018-12-10T07:04:23.810Z,4.90
2018-12-10T07:06:53.814Z,4.90
2018-12-10T07:09:23.841Z,4.90
2018-12-10T07:11:53.827Z,4.80
2018-12-10T07:14:23.810Z,4.80
2018-12-10T07:16:54.984Z,4.80
2018-12-10T07:19:25.055Z,4.80
2018-12-10T07:21:54.979Z,4.80
2018-12-10T07:24:24.972Z,4.80
2018-12-10T07:26:54.879Z,4.80
2018-12-10T07:29:24.792Z,4.90
2018-12-10T07:31:54.680Z,4.90
2018-12-10T07:34:24.612Z,4.90
2018-12-10T07:36:54.742Z,5.00
2018-12-10T07:39:24.768Z,5.00
2018-12-10T07:41:54.827Z,5.00
2018-12-10T07:44:25.882Z,5.00
2018-12-10T07:46:56.072Z,5.10
2018-12-10T07:49:25.947Z,5.10
2018-12-10T07:51:55.750Z,5.10
2018-12-10T07:54:25.893Z,5.10
2018-12-10T07:56:55.991Z,5.20
2018-12-10T07:59:25.899Z,5.20
2018-12-10T08:01:55.952Z,5.20
2018-12-10T08:04:25.948Z,5.20
2018-12-10T08:06:56.078Z,5.30
2018-12-10T08:09:25.976Z,5.30
2018-12-10T08:11:56.016Z,5.20
2018-12-10T08:14:26.070Z,5.20
2018-12-10T08:16:56.015Z,5.20
2018-12-10T08:19:25.943Z,5.20
2018-12-10T08:21:56.028Z,5.30
2018-12-10T08:24:25.891Z,5.40
2018-12-10T08:26:56.003Z,5.60
2018-12-10T08:29:26.003Z,5.70
2018-12-10T08:31:56.041Z,5.70
2018-12-10T08:34:26.245Z,6.00
2018-12-10T08:36:56.192Z,6.20
2018-12-10T08:39:26.186Z,6.50
2018-12-10T08:41:56.348Z,6.80
2018-12-10T08:44:26.274Z,6.70
2018-12-10T08:46:57.335Z,6.60
2018-12-10T08:49:27.354Z,6.50
2018-12-10T08:51:58.123Z,6.60
2018-12-10T08:54:28.202Z,6.50
2018-12-10T08:56:58.323Z,6.50
2018-12-10T08:59:28.384Z,6.40
2018-12-10T09:01:58.459Z,6.20
2018-12-10T09:04:28.488Z,6.10
2018-12-10T09:06:58.531Z,6.10
2018-12-10T09:09:28.618Z,6.10
2018-12-10T09:11:58.590Z,6.10
2018-12-10T09:14:28.647Z,6.00
2018-12-10T09:16:58.660Z,5.90
2018-12-10T09:19:29.197Z,5.90
2018-12-10T09:21:59.323Z,5.80
2018-12-10T09:24:29.226Z,5.80
2018-12-10T09:29:43.418Z,5.90
2018-12-10T09:32:13.605Z,6.10
2018-12-10T09:34:43.721Z,6.10
2018-12-10T09:37:13.863Z,6.00
2018-12-10T09:39:43.924Z,5.90
2018-12-10T09:42:13.859Z,5.90
2018-12-10T09:44:43.959Z,6.00
2018-12-10T09:47:13.929Z,6.10
2018-12-10T09:49:43.931Z,6.10
2018-12-10T09:52:13.939Z,6.00
2018-12-10T09:54:44.881Z,6.10
2018-12-10T09:57:14.695Z,6.20
2018-12-10T09:59:44.814Z,6.50
2018-12-10T10:02:14.939Z,6.80
2018-12-10T10:04:45.024Z,6.80
2018-12-10T10:07:15.020Z,6.60
2018-12-10T10:09:48.150Z,6.50
2018-12-10T10:12:27.653Z,6.60
2018-12-10T10:14:57.707Z,6.70
2018-12-10T10:17:27.730Z,6.90
2018-12-10T10:20:00.017Z,7.00
2018-12-10T10:22:29.947Z,7.10
2018-12-10T10:24:59.922Z,7.30
2018-12-10T10:27:29.785Z,7.50
2018-12-10T10:29:59.851Z,7.60
2018-12-10T10:32:29.907Z,7.60
2018-12-10T10:34:59.711Z,7.50
2018-12-10T10:37:29.807Z,7.40
2018-12-10T10:39:59.817Z,7.20
2018-12-10T10:42:29.909Z,6.90
2018-12-10T10:44:59.864Z,6.80
2018-12-10T10:47:29.873Z,6.70
2018-12-10T10:49:59.969Z,6.70
2018-12-10T10:52:33.322Z,6.80
2018-12-10T10:55:01.819Z,6.90
2018-12-10T10:57:31.883Z,7.00
2018-12-10T11:00:01.904Z,6.90
2018-12-10T11:02:38.324Z,6.90
2018-12-10T11:05:08.374Z,6.80
2018-12-10T11:07:38.511Z,6.80
2018-12-10T11:10:08.617Z,6.70
2018-12-10T11:12:38.623Z,6.60
2018-12-10T11:15:08.560Z,6.60
2018-12-10T11:17:38.455Z,6.60
2018-12-10T11:20:09.521Z,6.60
2018-12-10T11:22:40.389Z,6.70
2018-12-10T11:25:10.648Z,6.70
2018-12-10T11:27:40.530Z,6.70
2018-12-10T11:30:11.044Z,6.60
2018-12-10T11:32:40.991Z,6.40
2018-12-10T11:35:11.107Z,6.20
2018-12-10T11:37:41.284Z,6.00
2018-12-10T11:40:11.251Z,5.80
2018-12-10T11:42:42.227Z,5.60
2018-12-10T11:45:12.387Z,5.40
2018-12-10T11:47:42.411Z,5.10
2018-12-10T11:50:12.557Z,4.90
2018-12-10T11:52:43.045Z,4.80
2018-12-10T11:55:13.086Z,4.80
2018-12-10T11:57:43.149Z,4.80
2018-12-10T12:00:13.404Z,4.90
2018-12-10T12:02:43.489Z,4.90
2018-12-10T12:05:13.599Z,4.90
2018-12-10T12:07:43.727Z,4.90
2018-12-10T12:10:14.029Z,4.80
2018-12-10T12:12:45.088Z,4.80
2018-12-10T12:15:15.078Z,4.90
2018-12-10T12:17:45.024Z,4.90
2018-12-10T12:20:14.971Z,5.00
2018-12-10T12:22:44.935Z,5.10
2018-12-10T12:25:14.940Z,5.20
2018-12-10T12:27:44.956Z,5.30
2018-12-10T12:30:14.975Z,5.40
2018-12-10T12:32:45.028Z,5.40
2018-12-10T12:35:15.128Z,5.50
2018-12-10T12:37:45.132Z,5.50
2018-12-10T12:40:15.172Z,5.50
2018-12-10T12:42:45.392Z,5.50
2018-12-10T12:45:15.485Z,5.40
2018-12-10T12:47:46.127Z,5.30
2018-12-10T12:50:16.206Z,5.30
2018-12-10T12:52:46.200Z,5.10
2018-12-10T12:55:16.151Z,5.00
2018-12-10T12:57:46.185Z,5.00
2018-12-10T13:00:16.196Z,5.00
2018-12-10T13:02:46.232Z,4.90
2018-12-10T13:05:16.526Z,5.00
2018-12-10T13:07:46.564Z,5.00
2018-12-10T13:10:16.969Z,5.10
2018-12-10T13:12:47.007Z,5.10
2018-12-10T13:15:17.904Z,5.10
2018-12-10T13:17:47.971Z,5.10
2018-12-10T13:20:17.906Z,5.10
2018-12-10T13:22:48.084Z,5.10
2018-12-10T13:25:18.219Z,5.00
2018-12-10T13:27:48.381Z,5.00
2018-12-10T13:30:18.606Z,4.90
2018-12-10T13:32:48.666Z,4.80
2018-12-10T13:35:18.672Z,4.70
2018-12-10T13:37:48.704Z,4.70
2018-12-10T13:40:18.576Z,4.60
2018-12-10T13:42:48.524Z,4.60
2018-12-10T13:45:18.577Z,4.60
2018-12-10T13:47:48.651Z,4.60
2018-12-10T13:50:18.669Z,4.60
2018-12-10T13:52:48.695Z,4.60
2018-12-10T13:55:18.813Z,4.60
2018-12-10T13:57:48.834Z,4.60
2018-12-10T14:00:18.774Z,4.60
2018-12-10T14:02:48.863Z,4.70
2018-12-10T14:05:19.579Z,4.70
2018-12-10T14:07:49.529Z,4.70
2018-12-10T14:10:19.492Z,4.60
2018-12-10T14:12:49.370Z,4.60
2018-12-10T14:15:19.676Z,4.70
2018-12-10T14:17:49.779Z,4.80
2018-12-10T14:20:19.780Z,4.90
2018-12-10T14:22:49.993Z,5.00
2018-12-10T14:25:24.857Z,5.00
2018-12-10T14:27:55.075Z,4.90
2018-12-10T14:30:25.135Z,4.90
2018-12-10T14:32:55.147Z,4.80
2018-12-10T14:35:25.154Z,4.80
2018-12-10T14:37:55.186Z,4.70
2018-12-10T14:40:25.243Z,4.70
2018-12-10T14:42:57.203Z,4.60
2018-12-10T14:45:27.197Z,4.60
2018-12-10T14:47:57.858Z,4.50
2018-12-10T14:50:27.864Z,4.50
2018-12-10T14:52:57.816Z,4.50
2018-12-10T14:55:27.820Z,4.50
2018-12-10T14:57:57.788Z,4.50
2018-12-10T15:00:27.798Z,4.40
2018-12-10T15:02:58.773Z,4.40
2018-12-10T15:05:28.797Z,4.40
2018-12-10T15:07:58.877Z,4.30
2018-12-10T15:10:28.879Z,4.30
2018-12-10T15:12:59.171Z,4.30
2018-12-10T15:15:29.209Z,4.30
2018-12-10T15:17:59.275Z,4.30
2018-12-10T15:20:29.272Z,4.30
2018-12-10T15:22:59.337Z,4.40
2018-12-10T15:25:29.423Z,4.40
2018-12-10T15:27:59.450Z,4.40
2018-12-10T15:30:29.296Z,4.40
2018-12-10T15:32:59.328Z,4.40
2018-12-10T15:35:29.204Z,4.40
2018-12-10T15:37:59.410Z,4.40
2018-12-10T15:40:29.420Z,4.40
2018-12-10T15:42:59.230Z,4.40
2018-12-10T15:45:29.248Z,4.40
2018-12-10T15:47:59.208Z,4.40
2018-12-10T15:50:29.187Z,4.40
2018-12-10T15:52:59.314Z,4.40
2018-12-10T15:55:29.307Z,4.40
2018-12-10T15:57:59.200Z,4.40
2018-12-10T16:00:29.145Z,4.40
2018-12-10T16:02:59.167Z,4.40
2018-12-10T16:05:29.284Z,4.50
2018-12-10T16:07:59.394Z,4.50
2018-12-10T16:10:29.391Z,4.50
2018-12-10T16:12:59.227Z,4.50
2018-12-10T16:15:29.211Z,4.50
2018-12-10T16:17:59.367Z,4.50
2018-12-10T16:20:29.401Z,4.50
2018-12-10T16:22:59.512Z,4.50
2018-12-10T16:25:29.384Z,4.50
2018-12-10T16:27:59.280Z,4.50
2018-12-10T16:30:29.599Z,4.50
2018-12-10T16:32:59.651Z,4.50
2018-12-10T16:35:30.148Z,4.60
2018-12-10T16:38:00.240Z,4.60
2018-12-10T16:40:30.228Z,4.70
2018-12-10T16:43:00.453Z,4.80
2018-12-10T16:45:30.606Z,4.80
2018-12-10T16:48:00.728Z,4.90
2018-12-10T16:50:30.799Z,4.90
2018-12-10T16:53:01.060Z,4.90
2018-12-10T16:55:31.029Z,4.80
2018-12-10T16:58:01.099Z,4.80
2018-12-10T17:00:31.184Z,4.80
2018-12-10T17:03:01.133Z,4.70
2018-12-10T17:05:31.225Z,4.70
2018-12-10T17:08:01.298Z,4.60
2018-12-10T17:10:31.272Z,4.70
2018-12-10T17:13:01.367Z,4.70
2018-12-10T17:15:31.396Z,4.70
2018-12-10T17:18:01.511Z,4.70
2018-12-10T17:20:31.610Z,4.80
2018-12-10T17:23:01.484Z,4.80
2018-12-10T17:25:31.495Z,4.80
2018-12-10T17:28:01.491Z,4.80
2018-12-10T17:30:31.570Z,4.80
2018-12-10T17:33:01.607Z,4.80
2018-12-10T17:35:31.699Z,4.80
2018-12-10T17:38:01.611Z,4.80
2018-12-10T17:40:31.728Z,4.80
2018-12-10T17:43:01.677Z,4.80
2018-12-10T17:45:31.612Z,4.80
2018-12-10T17:48:01.608Z,4.90
2018-12-10T17:50:31.632Z,4.90
2018-12-10T17:53:01.536Z,5.00
2018-12-10T17:55:31.674Z,5.00
2018-12-10T17:58:02.013Z,5.00
2018-12-10T18:00:32.095Z,4.90
2018-12-10T18:03:02.039Z,4.90
2018-12-10T18:05:32.424Z,4.80
2018-12-10T18:08:02.348Z,4.80
2018-12-10T18:10:32.350Z,4.80
2018-12-10T18:13:02.356Z,4.70
2018-12-10T18:15:32.380Z,4.70
2018-12-10T18:18:02.336Z,4.70
2018-12-10T18:20:32.777Z,4.80
2018-12-10T18:23:03.020Z,4.80
2018-12-10T18:25:33.067Z,4.80
2018-12-10T18:28:03.159Z,4.80
2018-12-10T18:30:33.713Z,4.90
2018-12-10T18:33:03.979Z,4.90
2018-12-10T18:35:33.945Z,4.90
2018-12-10T18:38:03.959Z,4.90
2018-12-10T18:40:33.987Z,5.00
2018-12-10T18:43:04.086Z,5.00
2018-12-10T18:45:34.104Z,5.00
2018-12-10T18:48:04.051Z,5.00
2018-12-10T18:50:34.052Z,4.90
2018-12-10T18:53:03.990Z,4.90
2018-12-10T18:55:33.947Z,4.80
2018-12-10T18:58:03.947Z,4.70
2018-12-10T19:00:33.928Z,4.60
2018-12-10T19:03:03.925Z,4.50
2018-12-10T19:05:33.956Z,4.40
2018-12-10T19:08:03.958Z,4.40
2018-12-10T19:10:35.231Z,4.30
2018-12-10T19:13:05.325Z,4.30
2018-12-10T19:15:35.526Z,4.30
2018-12-10T19:18:05.754Z,4.20
2018-12-10T19:20:35.768Z,4.20
2018-12-10T19:23:05.823Z,4.30
2018-12-10T19:25:35.733Z,4.30
2018-12-10T19:28:05.716Z,4.40
2018-12-10T19:30:35.662Z,4.40
2018-12-10T19:33:05.660Z,4.50
2018-12-10T19:35:35.673Z,4.50
2018-12-10T19:38:05.697Z,4.50
2018-12-10T19:40:36.630Z,4.50
2018-12-10T19:43:06.739Z,4.40
2018-12-10T19:45:36.764Z,4.30
2018-12-10T19:48:06.722Z,4.30
2018-12-10T19:50:36.648Z,4.30
2018-12-10T19:53:06.563Z,4.40
2018-12-10T19:55:36.615Z,4.40
2018-12-10T19:58:06.697Z,4.40
2018-12-10T20:00:37.089Z,4.40
2018-12-10T20:03:07.148Z,4.40
2018-12-10T20:05:42.504Z,4.40
2018-12-10T20:08:12.616Z,4.30
2018-12-10T20:10:42.623Z,4.30
2018-12-10T20:13:12.621Z,4.30
2018-12-10T20:15:42.601Z,4.20
2018-12-10T20:18:12.540Z,4.30
2018-12-10T20:20:42.522Z,4.30
2018-12-10T20:23:12.424Z,4.40
2018-12-10T20:25:42.335Z,4.40
2018-12-10T20:28:12.238Z,4.50
2018-12-10T20:30:42.130Z,4.50
2018-12-10T20:33:12.030Z,4.50
2018-12-10T20:35:41.957Z,4.50
2018-12-10T20:38:11.953Z,4.40
2018-12-10T20:40:41.884Z,4.30
2018-12-10T20:43:11.870Z,4.20
2018-12-10T20:45:41.809Z,4.30
2018-12-10T20:48:11.776Z,4.20
2018-12-10T20:50:41.759Z,4.20
2018-12-10T20:53:11.629Z,4.20
2018-12-10T20:55:41.492Z,4.20
2018-12-10T20:58:11.303Z,4.10
2018-12-10T21:00:41.364Z,4.10
2018-12-10T21:03:11.430Z,4.00
2018-12-10T21:05:46.644Z,3.90
2018-12-10T21:08:16.559Z,3.90
2018-12-10T21:10:46.439Z,3.90
2018-12-10T21:13:16.502Z,3.90
2018-12-10T21:15:46.491Z,3.90
2018-12-10T21:18:16.481Z,3.90
2018-12-10T21:20:46.431Z,3.90
2018-12-10T21:23:16.472Z,4.00
2018-12-10T21:25:46.530Z,4.10
2018-12-10T21:28:16.460Z,4.10
2018-12-10T21:30:46.387Z,4.20
2018-12-10T21:33:16.274Z,4.30
2018-12-10T21:35:46.677Z,4.30
2018-12-10T21:38:16.615Z,4.20
2018-12-10T21:40:46.563Z,4.20
2018-12-10T21:43:16.543Z,4.30
2018-12-10T21:45:46.500Z,4.30
2018-12-10T21:48:16.487Z,4.30
2018-12-10T21:50:46.386Z,4.40
2018-12-10T21:53:16.295Z,4.40
2018-12-10T21:55:46.241Z,4.50
2018-12-10T21:58:16.116Z,4.50
2018-12-10T22:00:46.150Z,4.50
2018-12-10T22:03:16.076Z,4.50
2018-12-10T22:05:46.091Z,4.50
2018-12-10T22:08:15.959Z,4.60
2018-12-10T22:10:46.007Z,4.60
2018-12-10T22:13:16.047Z,4.70
2018-12-10T22:15:45.992Z,4.60
2018-12-10T22:18:15.859Z,4.60
2018-12-10T22:20:45.860Z,4.70
2018-12-10T22:23:15.774Z,4.70
2018-12-10T22:25:45.890Z,4.70
2018-12-10T22:28:15.805Z,4.60
2018-12-10T22:30:45.886Z,4.60
2018-12-10T22:33:15.850Z,4.60
2018-12-10T22:35:46.012Z,4.60
2018-12-10T22:38:15.948Z,4.60
2018-12-10T22:40:46.140Z,4.60
2018-12-10T22:43:16.256Z,4.60
2018-12-10T22:45:46.257Z,4.60
2018-12-10T22:48:16.450Z,4.60
2018-12-10T22:50:46.511Z,4.60
2018-12-10T22:53:16.524Z,4.60
2018-12-10T22:55:46.396Z,4.60
2018-12-10T22:58:16.275Z,4.60
2018-12-10T23:00:51.008Z,4.60
2018-12-10T23:03:21.892Z,4.60
2018-12-10T23:05:51.789Z,4.60
2018-12-10T23:08:22.912Z,4.60
2018-12-10T23:10:53.646Z,4.60
2018-12-10T23:13:23.727Z,4.70
2018-12-10T23:15:53.892Z,4.70
2018-12-10T23:18:23.945Z,4.70
2018-12-10T23:20:53.815Z,4.70
2018-12-10T23:23:23.808Z,4.60
2018-12-10T23:25:53.645Z,4.40
2018-12-10T23:28:23.602Z,4.30
2018-12-10T23:30:53.480Z,4.20
2018-12-10T23:33:23.531Z,4.20
2018-12-10T23:35:53.516Z,4.10
2018-12-10T23:38:23.539Z,4.10
2018-12-10T23:40:53.419Z,4.10
2018-12-10T23:43:26.150Z,4.10
2018-12-10T23:45:56.070Z,4.10
2018-12-10T23:48:26.079Z,4.10
2018-12-10T23:50:56.071Z,4.10
2018-12-10T23:53:25.987Z,4.10
2018-12-10T23:55:55.932Z,4.10
2018-12-10T23:58:25.932Z,4.10
